Latest Weather Observations for Richmond

IDN60801

Issued at 4:32 pm EDT Saturday 25 March 2017 (issued every 30 minutes, with the page automatically refreshed every 10 minutes)

About weather observations | Map of weather stations | Latest weather observations for NSW | Other Formats
Station Details ID: 067105 Name: RICHMOND RAAF Lat: -33.60 Lon: 150.78 Height: 19.0 m
Data from the previous 72 hours. | See also: Recent months at Richmond
Date/Time
EDT
Temp
°C
App
Temp
°C
Dew
Point
°C
Rel
Hum
%
Delta-T
°C
Wind Press
QNH
hPa
Press
MSL
hPa
Rain since
9am
mm
Dir  Spd
km/h
Gust
km/h
Spd
kts
Gust
kts
25/04:30pm 24.4 24.7 16.9 63 4.6 ENE 11 15 6 8 1013.2 1013.1 0.0
25/04:00pm 24.7 25.0 16.9 62 4.8 NE 11 15 6 8 1013.3 1013.2 0.0
25/03:30pm 25.1 24.9 16.8 60 5.1 NNE 13 20 7 11 1013.6 1013.5 0.0
25/03:00pm 24.1 24.0 16.9 64 4.4 NE 13 19 7 10 1013.7 1013.6 0.0
25/02:30pm 24.5 24.0 17.0 63 4.6 NE 15 22 8 12 1014.1 1014.0 0.0
25/02:00pm 24.1 23.5 16.6 63 4.6 NNE 15 22 8 12 1014.5 1014.4 0.0
25/01:30pm 24.2 24.1 17.0 64 4.4 NNE 13 22 7 12 1015.1 1015.0 0.0
25/01:00pm 23.1 22.7 16.2 65 4.2 N 13 17 7 9 1015.9 1015.8 0.0
25/12:30pm 22.8 23.4 15.9 65 4.2 NNE 7 13 4 7 1016.5 1016.4 0.0
25/12:00pm 22.7 22.9 16.7 69 3.7 ENE 11 15 6 8 1016.9 1016.8 0.0
25/11:30am 22.7 23.3 16.9 70 3.6 NNE 9 13 5 7 1017.2 1017.1 0.0
25/11:00am 22.3 23.3 16.3 69 3.6 NNE 6 9 3 5 1017.5 1017.4 0.0
25/10:30am 22.0 23.2 16.9 73 3.1 NNW 6 11 3 6 1017.6 1017.5 0.0
25/10:00am 22.1 23.4 17.2 74 3.0 N 6 9 3 5 1017.8 1017.7 0.0
25/09:30am 20.6 23.1 17.2 81 2.1 CALM 0 0 0 0 1017.9 1017.8 0.0
25/09:00am 20.3 22.8 17.3 83 1.8 CALM 0 0 0 0 1017.8 1017.7 0.0
25/08:30am 19.7 21.8 18.2 91 0.9 N 4 7 2 4 1017.5 1017.4 0.0
25/08:00am 18.6 20.8 18.4 99 0.1 NNW 4 7 2 4 1017.5 1017.4 0.0
25/07:30am 17.6 20.1 17.3 98 0.2 CALM 0 0 0 0 1017.4 1017.3 0.0
25/07:00am 17.7 20.1 17.1 96 0.4 CALM 0 0 0 0 1017.1 1017.0 0.0
25/06:30am 17.8 20.1 16.8 94 0.6 CALM 0 0 0 0 1017.2 1017.1 0.0
25/06:00am 18.6 21.2 17.4 93 0.7 CALM 0 0 0 0 1017.6 1017.5 0.0
25/05:30am 18.9 21.7 17.9 94 0.6 CALM 0 0 0 0 1017.6 1017.5 0.0
25/05:00am 18.9 21.6 17.7 93 0.7 CALM 0 0 0 0 1017.4 1017.3 0.0
25/04:30am 18.9 21.6 17.7 93 0.7 CALM 0 0 0 0 1017.2 1017.1 0.0
25/04:00am 18.8 21.4 17.5 92 0.8 CALM 0 0 0 0 1017.4 1017.3 0.0
25/03:30am 18.7 21.3 17.4 92 0.8 CALM 0 0 0 0 1017.5 1017.4 0.0
25/03:00am 18.7 21.3 17.4 92 0.8 CALM 0 0 0 0 1017.9 1017.8 0.0
25/02:30am 19.0 21.1 17.1 89 1.2 WNW 2 6 1 3 1018.2 1018.1 0.0
25/02:00am 19.1 20.2 17.2 89 1.2 W 7 11 4 6 1018.4 1018.3 0.0
25/01:30am 19.2 20.5 17.5 90 1.0 W 7 11 4 6 1018.8 1018.7 0.0
25/01:00am 19.3 20.8 17.6 90 1.0 SW 6 9 3 5 1019.1 1019.0 0.0
25/12:30am 19.3 20.7 17.3 88 1.2 WNW 6 9 3 5 1019.4 1019.3 0.0
25/12:00am 19.5 20.4 17.5 88 1.2 WNW 9 11 5 6 1019.9 1019.8 0.0
 
Date/Time
EDT
Temp
°C
App
Temp
°C
Dew
Point
°C
Rel
Hum
%
Delta-T
°C
Wind Press
QNH
hPa
Press
MSL
hPa
Rain since
9am
mm
Dir  Spd
km/h
Gust
km/h
Spd
kts
Gust
kts
24/11:30pm 19.5 22.1 17.5 88 1.2 CALM 0 0 0 0 1020.1 1020.0 0.0
24/11:00pm 19.5 22.2 17.8 90 1.0 CALM 0 0 0 0 1020.2 1020.1 0.0
24/10:30pm 19.4 20.8 17.4 88 1.2 NW 6 7 3 4 1020.2 1020.1 0.0
24/10:00pm 19.6 22.2 17.4 87 1.3 CALM 0 0 0 0 1020.2 1020.1 0.0
24/09:30pm 19.8 22.2 17.0 84 1.7 CALM 0 6 0 3 1020.2 1020.1 0.0
24/09:00pm 19.6 21.7 17.2 86 1.5 NNE 2 7 1 4 1020.0 1019.9 0.0
24/08:30pm 19.6 20.8 16.8 84 1.7 ENE 6 9 3 5 1019.7 1019.6 0.0
24/08:00pm 20.2 19.9 16.4 79 2.3 ESE 13 17 7 9 1019.5 1019.4 0.0
24/07:30pm 20.4 20.5 16.6 79 2.3 E 11 17 6 9 1019.1 1019.0 0.0
24/07:00pm 20.6 19.1 16.4 77 2.5 ESE 19 28 10 15 1019.0 1018.9 0.0
24/06:30pm 21.7 20.6 16.4 72 3.2 ESE 17 22 9 12 1018.7 1018.6 0.0
24/06:00pm 22.1 20.6 16.4 70 3.5 SE 19 28 10 15 1018.8 1018.7 0.0
24/05:30pm 23.0 21.4 16.5 67 4.0 ESE 20 28 11 15 1018.3 1018.2 0.0
24/05:00pm 23.0 20.9 16.3 66 4.1 ESE 22 28 12 15 1018.2 1018.1 0.0
24/04:30pm 23.3 21.4 16.8 67 4.0 ESE 22 30 12 16 1018.3 1018.2 0.0
24/04:00pm 23.7 21.6 16.2 63 4.6 ESE 22 30 12 16 1018.3 1018.2 0.0
24/03:30pm 23.7 22.7 16.7 65 4.3 SE 17 24 9 13 1018.4 1018.3 0.0
24/03:00pm 24.0 23.1 17.7 68 3.9 SE 19 24 10 13 1018.6 1018.5 0.0
24/02:30pm 23.1 23.5 18.2 74 3.1 ENE 13 19 7 10 1018.8 1018.7 0.0
24/02:00pm 23.4 21.9 16.7 66 4.1 SE 20 28 11 15 1019.2 1019.1 0.0
24/01:30pm 24.2 24.5 17.0 64 4.4 SE 11 17 6 9 1019.4 1019.3 0.0
24/01:00pm 23.6 23.3 16.4 64 4.4 SSW 13 17 7 9 1019.7 1019.6 0.0
24/12:30pm 23.5 23.2 16.5 65 4.3 S 13 19 7 10 1020.0 1019.9 0.0
24/12:00pm 23.9 23.3 16.7 64 4.4 S 15 24 8 13 1020.0 1019.9 0.0
24/11:30am 24.0 24.1 17.5 67 4.0 S 13 24 7 13 1020.3 1020.2 0.0
24/11:00am 23.0 22.7 16.5 67 4.0 S 13 22 7 12 1020.6 1020.5 0.0
24/10:30am 22.6 22.1 16.9 70 3.5 SSE 15 20 8 11 1020.4 1020.3 0.0
24/10:00am 22.3 21.8 17.0 72 3.2 S 15 22 8 12 1020.3 1020.2 0.0
24/09:30am 21.3 20.7 16.7 75 2.8 SSW 15 26 8 14 1020.3 1020.2 0.0
24/09:00am 21.0 22.2 18.2 84 1.7 SW 9 15 5 8 1020.2 1020.1 2.8
24/08:30am 19.5 21.3 18.2 92 0.8 WSW 6 9 3 5 1020.2 1020.1 2.8
24/08:00am 19.0 20.6 17.8 93 0.7 SW 6 9 3 5 1020.1 1020.0 2.8
24/07:30am 18.7 21.6 18.2 97 0.3 CALM 0 0 0 0 1019.7 1019.6 2.8
24/07:00am 18.6 21.2 18.3 98 0.2 SW 2 7 1 4 1019.5 1019.4 2.8
24/06:30am 18.5 21.4 18.3 99 0.1 CALM 0 7 0 4 1019.3 1019.2 2.8
24/06:00am 18.3 20.0 18.1 99 0.1 W 6 7 3 4 1019.2 1019.1 2.8
24/05:30am 18.3 19.8 18.1 99 0.1 WSW 7 11 4 6 1019.0 1018.9 2.8
24/05:18am 18.2 19.7 18.0 99 0.1 SW 7 9 4 5 1019.0 1018.9 2.8
24/05:09am 18.2 19.7 18.0 99 0.1 SSW 7 9 4 5 1018.9 1018.8 2.8
24/05:06am 18.1 19.5 17.9 99 0.1 SSW 7 13 4 7 1018.9 1018.8 2.8
24/05:01am 18.2 19.3 18.0 99 0.1 SSW 9 17 5 9 1018.9 1018.8 2.8
24/05:00am 18.2 18.9 18.0 99 0.1 SSW 11 17 6 9 1018.9 1018.8 2.8
24/04:51am 18.2 19.3 18.0 99 0.1 SSW 9 13 5 7 1019.0 1018.9 2.6
24/04:43am 18.2 19.3 17.9 98 0.2 SSW 9 13 5 7 1019.0 1018.9 2.6
24/04:30am 18.3 19.0 18.0 98 0.2 SW 11 15 6 8 1018.8 1018.7 2.6
24/04:00am 18.2 18.0 17.7 97 0.3 SW 15 19 8 10 1018.4 1018.3 2.6
24/03:30am 18.3 19.7 17.8 97 0.3 SW 7 11 4 6 1018.4 1018.3 2.6
24/03:00am 18.4 20.1 18.1 98 0.2 W 6 7 3 4 1018.7 1018.6 2.6
24/02:30am 18.4 19.5 17.9 97 0.3 WSW 9 11 5 6 1019.1 1019.0 2.6
24/02:26am 18.4 19.5 17.9 97 0.3 SW 9 11 5 6 1019.1 1019.0 2.2
24/02:07am 18.6 19.7 17.9 96 0.4 WSW 9 13 5 7 1019.2 1019.1 2.0
24/02:00am 18.6 19.7 18.1 97 0.3 SW 9 13 5 7 1019.0 1018.9 2.0
24/01:50am 18.6 19.3 17.9 96 0.4 SW 11 13 6 7 1019.0 1018.9 2.0
24/01:34am 18.7 19.8 18.0 96 0.4 SSW 9 13 5 7 1019.1 1019.0 2.0
24/01:30am 18.7 19.8 18.0 96 0.4 S 9 13 5 7 1019.1 1019.0 1.6
24/01:00am 18.7 18.3 18.0 96 0.4 SW 17 20 9 11 1019.2 1019.1 1.6
24/12:30am 19.3 20.7 18.6 96 0.4 W 9 17 5 9 1019.3 1019.2 1.6
24/12:00am 19.4 20.9 18.9 97 0.3 SSW 9 13 5 7 1019.1 1019.0 1.6
 
Date/Time
EDT
Temp
°C
App
Temp
°C
Dew
Point
°C
Rel
Hum
%
Delta-T
°C
Wind Press
QNH
hPa
Press
MSL
hPa
Rain since
9am
mm
Dir  Spd
km/h
Gust
km/h
Spd
kts
Gust
kts
23/11:30pm 19.5 21.5 18.7 95 0.5 S 6 7 3 4 1019.0 1018.9 1.6
23/11:00pm 19.6 21.1 18.8 95 0.5 SSW 9 15 5 8 1019.1 1019.0 1.6
23/10:30pm 19.5 21.0 19.0 97 0.3 SSW 9 13 5 7 1019.0 1018.9 1.6
23/10:00pm 19.5 20.1 18.7 95 0.5 SSW 13 19 7 10 1019.1 1019.0 1.6
23/09:30pm 19.6 21.1 18.9 96 0.4 SSW 9 17 5 9 1019.0 1018.9 1.6
23/09:00pm 19.7 21.6 19.0 96 0.4 SSW 7 11 4 6 1018.8 1018.7 1.6
23/08:30pm 19.8 21.9 19.3 97 0.3 SW 7 11 4 6 1018.6 1018.5 1.6
23/08:00pm 19.8 21.9 19.3 97 0.3 SSW 7 9 4 5 1017.9 1017.8 1.6
23/07:30pm 19.8 22.0 19.3 97 0.3 SSW 6 9 3 5 1017.6 1017.5 1.6
23/07:00pm 19.8 21.8 19.1 96 0.4 S 7 9 4 5 1017.6 1017.5 1.6
23/06:30pm 19.9 22.1 19.6 98 0.2 S 7 11 4 6 1017.5 1017.4 1.6
23/06:00pm 19.9 21.1 19.1 95 0.5 SSW 11 17 6 9 1017.6 1017.5 1.6
23/05:30pm 19.8 21.3 19.0 95 0.5 SSW 9 13 5 7 1017.5 1017.4 1.4
23/05:00pm 20.4 22.0 19.1 92 0.8 S 9 11 5 6 1017.5 1017.4 0.8
23/04:30pm 20.7 22.6 19.0 90 1.1 S 7 11 4 6 1017.3 1017.2 0.8
23/04:00pm 21.8 24.7 18.2 80 2.2 CALM 0 6 0 3 1017.3 1017.2 0.4
23/03:30pm 22.4 23.7 17.5 74 3.0 S 7 9 4 5 1017.4 1017.3 0.0
23/03:00pm 22.7 24.1 17.8 74 3.0 S 7 11 4 6 1017.3 1017.2 0.0
23/02:30pm 22.7 23.9 17.4 72 3.3 SSW 7 11 4 6 1017.7 1017.6 0.0
23/02:00pm 22.8 23.6 17.3 71 3.4 S 9 13 5 7 1017.9 1017.8 0.0
23/01:30pm 22.8 23.1 17.0 70 3.6 S 11 15 6 8 1018.4 1018.3 0.0
23/01:00pm 22.9 23.2 16.9 69 3.7 S 11 15 6 8 1018.7 1018.6 0.0
23/12:30pm 23.2 24.0 17.2 69 3.7 SSE 9 11 5 6 1018.9 1018.8 0.0
23/12:00pm 23.0 23.8 17.2 70 3.6 S 9 13 5 7 1019.3 1019.2 0.0
23/11:30am 22.9 22.9 17.1 70 3.6 S 13 17 7 9 1019.6 1019.5 0.0
23/11:00am 22.7 22.7 17.2 71 3.4 SSE 13 19 7 10 1019.4 1019.3 0.0
23/10:30am 22.4 21.7 17.3 73 3.1 SSW 17 26 9 14 1019.3 1019.2 0.0
23/10:00am 22.3 22.9 17.7 75 2.8 S 11 15 6 8 1018.9 1018.8 0.0
23/09:30am 21.8 23.3 18.0 79 2.4 SSW 7 11 4 6 1019.1 1019.0 0.0
23/09:00am 21.5 22.7 18.3 82 2.0 S 9 11 5 6 1018.7 1018.6 12.0
23/08:30am 21.2 23.1 18.6 85 1.6 SSW 6 11 3 6 1018.5 1018.4 12.0
23/08:00am 21.0 23.0 18.8 87 1.4 S 6 9 3 5 1018.1 1018.0 12.0
23/07:30am 20.8 24.4 19.8 94 0.6 CALM 0 0 0 0 1017.9 1017.8 12.0
23/07:00am 20.7 23.1 19.7 94 0.6 SW 6 7 3 4 1017.7 1017.6 12.0
23/06:30am 20.7 23.4 19.5 93 0.8 SW 4 7 2 4 1017.3 1017.2 12.0
23/06:00am 20.9 24.6 19.9 94 0.6 CALM 0 0 0 0 1017.1 1017.0 12.0
23/05:30am 20.7 23.8 19.4 92 0.8 WSW 2 6 1 3 1016.6 1016.5 12.0
23/05:00am 20.7 23.5 19.7 94 0.6 W 4 7 2 4 1016.5 1016.4 12.0
23/04:30am 20.7 22.9 19.5 93 0.8 WSW 7 9 4 5 1016.5 1016.4 12.0
23/04:00am 20.9 22.8 19.0 89 1.2 S 7 9 4 5 1016.6 1016.5 12.0
23/03:30am 20.9 24.2 19.0 89 1.2 CALM 0 4 0 2 1016.6 1016.5 12.0
23/03:00am 21.0 23.0 19.1 89 1.2 S 7 13 4 7 1016.5 1016.4 12.0
23/02:30am 21.0 24.6 19.7 92 0.8 CALM 0 0 0 0 1016.9 1016.8 12.0
23/02:00am 21.1 22.9 19.6 91 1.0 S 9 13 5 7 1016.9 1016.8 12.0
23/01:30am 21.2 22.8 20.0 93 0.8 S 11 15 6 8 1016.9 1016.8 12.0
23/01:00am 21.3 23.7 20.8 97 0.3 SSW 9 11 5 6 1016.9 1016.8 12.0
23/12:59am 21.3 23.7 20.8 97 0.3 SSW 9 11 5 6 1016.9 1016.8 12.0
23/12:43am 21.3 23.8 21.0 98 0.2 SW 9 13 5 7 1016.8 1016.7 12.0
23/12:30am 21.3 24.2 21.0 98 0.2 WSW 7 11 4 6 1016.9 1016.8 12.0
23/12:28am 21.3 24.2 21.0 98 0.2 WSW 7 13 4 7 1016.8 1016.7 12.0
23/12:00am 21.3 24.0 20.6 96 0.5 W 7 9 4 5 1016.7 1016.6 11.6
 
Date/Time
EDT
Temp
°C
App
Temp
°C
Dew
Point
°C
Rel
Hum
%
Delta-T
°C
Wind Press
QNH
hPa
Press
MSL
hPa
Rain since
9am
mm
Dir  Spd
km/h
Gust
km/h
Spd
kts
Gust
kts
22/11:43pm 21.3 24.0 20.6 96 0.5 WSW 7 11 4 6 1016.6 1016.5 11.6
22/11:30pm 21.3 24.5 20.6 96 0.5 W 4 11 2 6 1016.6 1016.5 11.6
22/11:00pm 21.2 24.1 20.7 97 0.3 SW 6 9 3 5 1016.7 1016.6 11.6
22/10:30pm 21.2 23.8 20.5 96 0.5 S 7 9 4 5 1016.6 1016.5 11.6
22/10:00pm 21.2 23.7 21.0 99 0.1 SSE 9 13 5 7 1016.3 1016.2 11.6
22/09:30pm 21.2 24.3 21.0 99 0.1 S 6 9 3 5 1015.5 1015.4 11.6
22/09:00pm 21.3 25.5 21.0 98 0.2 CALM 0 0 0 0 1014.7 1014.6 11.6
22/08:30pm 21.5 24.4 21.0 97 0.3 WSW 7 7 4 4 1014.2 1014.1 11.6
22/08:00pm 21.7 24.9 21.2 97 0.3 NW 6 9 3 5 1013.5 1013.4 11.6
22/07:30pm 21.9 24.6 21.4 97 0.3 NW 9 11 5 6 1013.6 1013.5 11.6
22/07:00pm 22.3 25.5 21.3 94 0.7 N 6 9 3 5 1013.5 1013.4 11.6
22/06:30pm 22.5 25.2 21.3 93 0.8 NW 9 13 5 7 1013.4 1013.3 11.6
22/06:00pm 22.4 25.6 21.7 96 0.5 SW 7 11 4 6 1012.8 1012.7 11.6
22/05:55pm 22.1 25.5 21.6 97 0.3 S 6 13 3 7 1012.6 1012.5 11.6
22/05:30pm 21.9 23.6 21.6 98 0.2 SE 15 19 8 10 1012.8 1012.7 6.8
22/05:29pm 21.9 23.8 21.4 97 0.3 SE 13 19 7 10 1012.8 1012.7 6.2
22/05:00pm 22.0 22.3 20.8 93 0.8 S 20 28 11 15 1012.1 1012.0 2.8
22/04:44pm 22.1 23.4 20.9 93 0.8 E 15 33 8 18 1011.6 1011.5 2.6

Other Formats:

Comma delimited format used in spreadsheet applications
http://www.bom.gov.au/fwo/IDN60801/IDN60801.95753.axf

JavaScript Object Notation format (JSON) in row-major order
http://www.bom.gov.au/fwo/IDN60801/IDN60801.95753.json